Time;durP1;ratioP1;P1;durP2;ratioP2;P2;SDS_P1;SDS_P2;PMS_P1;PMS_P2;Temp;Humidity;BMP_temperature;BMP_pressure;BME280_temperature;BME280_humidity;BME280_pressure;Samples;Min_cycle;Max_cycle;Signal;HPM_P1;HPM_P2
2020/12/19 00:01:11;;;;;;;55.03;29.13;;;;;;;1.59;100.00;100964.26;1745112;81;21124;-77
2020/12/19 00:03:38;;;;;;;55.50;29.30;;;;;;;1.60;100.00;100962.16;1763892;81;21247;-77
2020/12/19 00:06:08;;;;;;;58.20;29.73;;;;;;;1.63;100.00;100967.38;1742963;81;21136;-77
2020/12/19 00:08:36;;;;;;;53.40;29.93;;;;;;;1.68;100.00;100967.56;1745024;81;21128;-77
2020/12/19 00:11:06;;;;;;;56.03;29.17;;;;;;;1.72;100.00;100968.98;1743224;80;21128;-77
2020/12/19 00:13:34;;;;;;;44.10;24.17;;;;;;;1.78;100.00;100964.52;1744610;80;21124;-77
2020/12/19 00:16:02;;;;;;;50.10;26.57;;;;;;;1.85;100.00;100965.19;1700651;82;21336;-77
2020/12/19 00:18:30;;;;;;;51.43;27.93;;;;;;;1.91;100.00;100961.58;1731218;81;21153;-77
2020/12/19 00:20:58;;;;;;;52.97;27.50;;;;;;;1.99;100.00;100965.66;1740899;81;21173;-77
2020/12/19 00:23:26;;;;;;;53.13;27.47;;;;;;;2.05;100.00;100971.84;1741723;81;21562;-77
2020/12/19 00:25:53;;;;;;;58.30;29.27;;;;;;;2.11;100.00;100968.65;1738816;80;21548;-77
2020/12/19 00:28:21;;;;;;;47.47;22.80;;;;;;;2.14;100.00;100968.75;1761441;81;21247;-77
2020/12/19 00:30:48;;;;;;;51.20;26.40;;;;;;;2.18;100.00;100964.20;1741829;80;21155;-77
2020/12/19 00:33:16;;;;;;;53.93;29.10;;;;;;;2.21;100.00;100963.03;1754183;80;21129;-77
2020/12/19 00:35:44;;;;;;;54.80;28.60;;;;;;;2.28;100.00;100970.49;1744028;80;21152;-77
2020/12/19 00:38:11;;;;;;;49.97;27.80;;;;;;;2.32;100.00;100971.94;1734656;80;21107;-76
2020/12/19 00:40:40;;;;;;;57.87;29.33;;;;;;;2.39;100.00;100969.56;1739758;80;21147;-77
2020/12/19 00:43:07;;;;;;;58.03;30.00;;;;;;;2.44;100.00;100971.88;1704331;83;21248;-77
2020/12/19 00:45:35;;;;;;;53.53;28.37;;;;;;;2.49;100.00;100967.39;1748955;81;21164;-76
2020/12/19 00:48:03;;;;;;;56.27;27.43;;;;;;;2.55;100.00;100970.14;1732060;80;21159;-77
2020/12/19 00:50:31;;;;;;;55.07;28.30;;;;;;;2.61;100.00;100963.48;1780089;80;21172;-77
2020/12/19 00:52:59;;;;;;;52.33;28.07;;;;;;;2.65;100.00;100963.64;1784875;80;21619;-77
2020/12/19 00:55:26;;;;;;;48.27;27.10;;;;;;;2.68;100.00;100966.30;1772073;78;21227;-77
2020/12/19 00:57:54;;;;;;;49.90;26.93;;;;;;;2.71;100.00;100970.20;1796142;80;21252;-76
2020/12/19 01:00:22;;;;;;;52.73;24.93;;;;;;;2.73;100.00;100962.19;1795359;78;21234;-77
2020/12/19 01:02:49;;;;;;;45.77;26.17;;;;;;;2.74;100.00;100962.63;1768051;80;21643;-77
2020/12/19 01:05:17;;;;;;;45.27;26.03;;;;;;;2.76;100.00;100966.53;1790038;80;21114;-78
2020/12/19 01:07:45;;;;;;;44.60;25.70;;;;;;;2.76;100.00;100969.09;1768133;78;21117;-77
2020/12/19 01:10:13;;;;;;;53.57;27.60;;;;;;;2.78;100.00;100958.10;1787892;80;21093;-76
2020/12/19 01:12:40;;;;;;;44.57;26.70;;;;;;;2.79;100.00;100957.69;1800480;78;21544;-78
2020/12/19 01:15:08;;;;;;;46.90;27.03;;;;;;;2.80;100.00;100959.00;1802107;80;21117;-77
2020/12/19 01:17:39;;;;;;;52.57;28.80;;;;;;;2.82;100.00;100965.45;1775036;78;21279;-78
2020/12/19 01:20:07;;;;;;;;;;;;;;;2.81;100.00;100965.87;1789515;78;21099;-77
2020/12/19 01:22:34;;;;;;;45.47;26.27;;;;;;;2.81;100.00;100967.14;1802695;78;20135;-77
2020/12/19 01:25:02;;;;;;;54.40;28.90;;;;;;;2.82;100.00;100970.56;1802631;78;21117;-77
2020/12/19 01:27:29;;;;;;;52.73;29.60;;;;;;;2.83;100.00;100965.03;1776813;78;21124;-77
2020/12/19 01:29:57;;;;;;;40.27;24.90;;;;;;;2.84;100.00;100965.48;1756854;80;21100;-77
2020/12/19 01:32:25;;;;;;;53.57;32.70;;;;;;;2.86;100.00;100961.30;1779341;78;21109;-77
2020/12/19 01:34:52;;;;;;;39.53;25.03;;;;;;;2.86;100.00;100965.13;1779133;78;21182;-78
2020/12/19 01:37:21;;;;;;;45.77;26.73;;;;;;;2.84;100.00;100967.62;1781369;80;21255;-77
2020/12/19 01:39:51;;;;;;;50.40;28.67;;;;;;;2.83;100.00;100970.15;1797111;78;21128;-79
2020/12/19 01:42:19;;;;;;;40.50;26.27;;;;;;;2.82;100.00;100973.13;1783618;78;21380;-78
2020/12/19 01:44:47;;;;;;;38.30;21.33;;;;;;;2.83;100.00;100973.98;1776373;78;21128;-77
2020/12/19 01:47:15;;;;;;;43.70;26.33;;;;;;;2.83;100.00;100972.29;1785363;78;21124;-78
2020/12/19 01:49:44;;;;;;;38.03;22.57;;;;;;;2.85;99.99;100965.97;1799630;78;21128;-78
2020/12/19 01:52:12;;;;;;;43.40;25.67;;;;;;;2.87;99.74;100971.55;1790547;78;21758;-77
2020/12/19 01:54:40;;;;;;;39.33;24.37;;;;;;;2.87;99.42;100974.53;1778854;80;21081;-77
2020/12/19 01:57:07;;;;;;;32.53;20.00;;;;;;;2.86;99.27;100967.69;1743449;78;21132;-78
2020/12/19 01:59:37;;;;;;;32.03;20.53;;;;;;;2.90;99.09;100970.79;1793572;78;21113;-78
2020/12/19 02:02:06;;;;;;;29.47;18.80;;;;;;;2.90;98.87;100969.09;1757691;80;21230;-78
2020/12/19 02:04:34;;;;;;;37.83;23.07;;;;;;;2.91;98.60;100973.41;1776878;78;21141;-78
2020/12/19 02:07:04;;;;;;;33.90;21.20;;;;;;;2.91;98.54;100968.68;1777634;80;22120;-77
2020/12/19 02:09:39;;;;;;;29.02;19.55;;;;;;;2.92;98.25;100972.58;1783657;80;21121;-78
2020/12/19 02:12:09;;;;;;;30.13;18.13;;;;;;;2.91;97.98;100974.69;1780150;78;21145;-78
2020/12/19 02:14:37;;;;;;;32.10;20.40;;;;;;;2.87;97.43;100963.89;1788388;78;21117;-77
2020/12/19 02:17:11;;;;;;;31.73;19.30;;;;;;;2.84;97.24;100965.48;1759927;80;21137;-76
2020/12/19 02:19:40;;;;;;;26.27;17.70;;;;;;;2.79;97.39;100963.66;1779154;78;21117;-77
2020/12/19 02:22:09;;;;;;;31.43;17.93;;;;;;;2.79;97.53;100964.08;1777532;80;21128;-76
2020/12/19 02:24:36;;;;;;;26.97;18.20;;;;;;;2.78;97.60;100969.60;1787134;79;21510;-77
2020/12/19 02:27:04;;;;;;;32.20;20.27;;;;;;;2.79;97.58;100968.77;1755834;80;21113;-78
2020/12/19 02:29:32;;;;;;;30.73;20.20;;;;;;;2.81;97.36;100956.92;1777177;78;21129;-77
2020/12/19 02:32:00;;;;;;;25.10;16.20;;;;;;;2.81;97.30;100962.03;1793309;80;21153;-76
2020/12/19 02:34:28;;;;;;;29.07;18.03;;;;;;;2.81;97.29;100960.75;1797872;78;21130;-76
2020/12/19 02:36:56;;;;;;;26.57;18.63;;;;;;;2.80;97.33;100967.94;1729424;81;21581;-76
2020/12/19 02:39:23;;;;;;;26.87;17.37;;;;;;;2.81;97.32;100963.31;1710184;81;21121;-77
2020/12/19 02:41:51;;;;;;;23.20;15.60;;;;;;;2.84;97.15;100971.88;1745147;80;21107;-78
2020/12/19 02:44:20;;;;;;;26.70;18.20;;;;;;;2.84;97.08;100966.77;1734349;81;21124;-77
2020/12/19 02:46:48;;;;;;;25.20;17.73;;;;;;;2.84;96.96;100966.77;1733257;80;21141;-77
2020/12/19 02:49:18;;;;;;;23.23;15.57;;;;;;;2.84;96.96;100973.16;1732443;80;21528;-77
2020/12/19 02:51:46;;;;;;;23.77;16.47;;;;;;;2.84;96.79;100968.91;1761953;81;21267;-77
2020/12/19 02:54:13;;;;;;;24.07;16.13;;;;;;;2.79;96.85;100971.33;1735628;80;21136;-76
2020/12/19 02:56:41;;;;;;;24.67;15.83;;;;;;;2.83;97.08;100967.17;1732770;80;21140;-77
2020/12/19 02:59:08;;;;;;;25.33;16.40;;;;;;;2.86;96.90;100971.11;1743011;81;21267;-79
2020/12/19 03:01:37;;;;;;;25.03;17.57;;;;;;;2.85;96.68;100971.08;1726191;80;21127;-76
2020/12/19 03:04:04;;;;;;;25.50;16.57;;;;;;;2.84;96.63;100974.02;1720231;81;21143;-77
2020/12/19 03:06:33;;;;;;;23.97;17.50;;;;;;;2.85;96.59;100981.30;1734608;80;21320;-77
2020/12/19 03:09:03;;;;;;;24.37;16.83;;;;;;;2.86;96.68;100969.83;1731615;80;21143;-76
2020/12/19 03:11:32;;;;;;;32.28;19.95;;;;;;;2.89;96.52;100972.90;1738810;79;21186;-76
2020/12/19 03:13:59;;;;;;;28.40;17.13;;;;;;;2.91;96.69;100973.80;1747844;80;21158;-78
2020/12/19 03:16:27;;;;;;;24.57;16.63;;;;;;;2.92;96.42;100982.80;1734233;80;21146;-77
2020/12/19 03:18:55;;;;;;;22.60;15.93;;;;;;;2.93;96.13;100972.16;1790076;78;21512;-77
2020/12/19 03:21:23;;;;;;;30.93;20.40;;;;;;;2.87;95.94;100968.14;1775021;78;21164;-77
2020/12/19 03:23:50;;;;;;;36.30;21.40;;;;;;;2.84;96.07;100966.77;1755162;78;21125;-77
2020/12/19 03:26:18;;;;;;;29.53;19.23;;;;;;;2.84;96.20;100966.34;1728086;83;21226;-78
2020/12/19 03:28:45;;;;;;;38.63;25.30;;;;;;;2.81;96.12;100964.97;1750724;81;21128;-78
2020/12/19 03:31:13;;;;;;;33.00;21.03;;;;;;;2.80;96.18;100961.97;1761470;81;21136;-77
2020/12/19 03:33:41;;;;;;;44.23;27.03;;;;;;;2.79;96.23;100949.61;1739711;80;21123;-77
2020/12/19 03:36:09;;;;;;;36.77;21.97;;;;;;;2.78;96.15;100944.05;1725383;82;21121;-77
2020/12/19 03:38:36;;;;;;;33.27;21.97;;;;;;;2.73;95.89;100960.91;1797800;80;21117;-77
2020/12/19 03:41:04;;;;;;;43.47;26.83;;;;;;;2.71;96.12;100961.67;1778740;78;21128;-75
2020/12/19 03:43:31;;;;;;;37.20;23.27;;;;;;;2.73;96.35;100976.66;1799688;78;21263;-75
2020/12/19 03:45:59;;;;;;;35.73;22.20;;;;;;;2.77;96.60;100969.53;1760895;80;21097;-76
2020/12/19 03:48:27;;;;;;;26.00;17.27;;;;;;;2.82;96.81;100982.06;1786013;78;21121;-77
2020/12/19 03:50:54;;;;;;;29.50;19.07;;;;;;;2.88;96.63;100974.97;1799402;78;21074;-76
2020/12/19 03:53:22;;;;;;;26.80;18.57;;;;;;;2.90;96.46;100981.02;1799397;78;21310;-76
2020/12/19 03:55:50;;;;;;;22.97;16.70;;;;;;;2.94;96.39;100979.00;1777214;78;21129;-76
2020/12/19 03:58:17;;;;;;;22.80;15.23;;;;;;;2.96;96.12;100974.82;1799502;78;21121;-77
2020/12/19 04:00:45;;;;;;;20.50;14.50;;;;;;;2.97;96.10;100981.23;1799087;78;21116;-77
2020/12/19 04:03:13;;;;;;;29.97;17.33;;;;;;;2.98;96.00;100975.75;1788966;80;21144;-76
2020/12/19 04:05:41;;;;;;;23.47;16.30;;;;;;;3.01;95.99;100974.56;1758669;80;21132;-76
2020/12/19 04:08:08;;;;;;;21.10;15.03;;;;;;;3.01;95.66;100977.13;1769390;78;21255;-77
2020/12/19 04:10:36;;;;;;;23.67;15.73;;;;;;;2.99;95.65;100973.22;1783587;78;21251;-76
2020/12/19 04:13:04;;;;;;;23.03;16.17;;;;;;;2.99;95.57;100974.91;1768059;80;21110;-76
2020/12/19 04:15:32;;;;;;;20.97;15.37;;;;;;;2.98;95.48;100977.89;1782314;80;21140;-77
2020/12/19 04:17:59;;;;;;;23.77;15.40;;;;;;;2.96;95.62;100982.07;1785796;80;21125;-77
2020/12/19 04:20:27;;;;;;;21.80;15.37;;;;;;;2.96;95.49;100970.98;1776434;80;21074;-76
2020/12/19 04:22:54;;;;;;;25.37;16.23;;;;;;;2.93;95.71;100977.28;1763831;80;21217;-76
2020/12/19 04:25:22;;;;;;;23.63;16.47;;;;;;;2.89;95.74;100976.73;1783814;80;21113;-76
2020/12/19 04:27:50;;;;;;;23.97;16.17;;;;;;;2.86;95.86;100977.50;1765165;80;21113;-75
2020/12/19 04:30:17;;;;;;;23.73;16.47;;;;;;;2.84;95.96;100980.41;1781395;80;21117;-75
2020/12/19 04:32:44;;;;;;;23.00;16.80;;;;;;;2.81;96.08;100985.03;1772913;80;21101;-76
2020/12/19 04:35:14;;;;;;;25.53;17.53;;;;;;;2.78;96.41;100977.69;1786536;80;21078;-76
2020/12/19 04:37:42;;;;;;;24.30;17.33;;;;;;;2.74;96.68;100975.83;1763923;80;21548;-77
2020/12/19 04:40:09;;;;;;;26.73;16.73;;;;;;;2.73;97.03;100974.09;1778925;80;21105;-76
2020/12/19 04:42:37;;;;;;;25.33;18.03;;;;;;;2.77;97.25;100975.92;1794834;80;21113;-77
2020/12/19 04:45:05;;;;;;;26.70;18.40;;;;;;;2.81;97.21;100977.36;1767370;80;21232;-76
2020/12/19 04:47:32;;;;;;;29.53;18.87;;;;;;;2.84;97.23;100974.02;1786612;80;21332;-76
2020/12/19 04:50:00;;;;;;;29.30;19.37;;;;;;;2.85;97.17;100973.63;1790830;80;21157;-75
2020/12/19 04:52:28;;;;;;;28.03;19.27;;;;;;;2.83;97.13;100971.42;1791270;80;21137;-76
2020/12/19 04:54:56;;;;;;;31.50;20.23;;;;;;;2.80;97.12;100975.61;1791033;80;21494;-76
2020/12/19 04:57:23;;;;;;;32.23;19.40;;;;;;;2.78;97.33;100975.98;1772772;80;21141;-77
2020/12/19 04:59:51;;;;;;;25.03;17.70;;;;;;;2.78;97.51;100972.16;1772862;80;21660;-76
2020/12/19 05:02:19;;;;;;;27.20;17.30;;;;;;;2.80;97.73;100973.05;1782714;80;21117;-77
2020/12/19 05:04:50;;;;;;;25.47;16.27;;;;;;;2.80;97.47;100976.02;1789328;80;21527;-76
2020/12/19 05:07:19;;;;;;;25.40;15.53;;;;;;;2.78;97.63;100972.16;1763620;80;21121;-77
2020/12/19 05:09:47;;;;;;;28.30;17.97;;;;;;;2.76;97.59;100976.75;1769934;80;21186;-77
2020/12/19 05:12:15;;;;;;;26.20;17.60;;;;;;;2.69;97.47;100979.94;1773137;80;21153;-77
2020/12/19 05:14:43;;;;;;;25.40;16.80;;;;;;;2.61;97.80;100977.11;1798992;78;21746;-76
2020/12/19 05:17:11;;;;;;;27.30;16.90;;;;;;;2.60;97.91;100974.11;1762605;80;21085;-78
2020/12/19 05:19:38;;;;;;;25.47;16.27;;;;;;;2.56;98.17;100971.88;1794842;78;21118;-77
2020/12/19 05:22:06;;;;;;;27.10;17.50;;;;;;;2.54;98.48;100970.94;1747639;81;21251;-77
2020/12/19 05:24:37;;;;;;;26.23;16.47;;;;;;;2.56;98.70;100973.56;1778183;78;21128;-77
2020/12/19 05:27:06;;;;;;;28.13;17.17;;;;;;;2.57;98.78;100984.23;1779881;78;21117;-78
2020/12/19 05:29:37;;;;;;;27.47;17.00;;;;;;;2.58;98.76;100979.56;1755617;79;21128;-76
2020/12/19 05:32:04;;;;;;;27.97;16.87;;;;;;;2.60;98.66;100981.77;1779701;78;21113;-76
2020/12/19 05:34:32;;;;;;;29.97;19.07;;;;;;;2.55;98.81;100976.53;1768391;78;21113;-77
2020/12/19 05:37:01;;;;;;;24.70;16.50;;;;;;;2.54;98.78;100985.41;1787482;78;21109;-77
2020/12/19 05:39:29;;;;;;;25.20;15.37;;;;;;;2.54;98.77;100982.44;1788114;80;21105;-76
2020/12/19 05:41:57;;;;;;;26.13;17.07;;;;;;;2.56;98.70;100987.61;1768409;80;21286;-76
2020/12/19 05:44:25;;;;;;;28.50;16.77;;;;;;;2.54;98.68;100989.23;1768584;78;21117;-76
2020/12/19 05:46:53;;;;;;;25.97;15.13;;;;;;;2.55;98.64;100992.23;1768209;80;21120;-77
2020/12/19 05:49:21;;;;;;;26.57;16.43;;;;;;;2.52;98.49;100995.58;1790213;78;21509;-76
2020/12/19 05:51:49;;;;;;;27.17;17.67;;;;;;;2.50;98.49;100995.93;1768277;78;21125;-77
2020/12/19 05:54:17;;;;;;;25.27;16.97;;;;;;;2.44;98.72;100993.58;1762675;80;21258;-77
2020/12/19 05:56:50;;;;;;;28.70;18.77;;;;;;;2.38;98.65;100995.52;1769249;80;21129;-76
2020/12/19 05:59:19;;;;;;;30.30;19.10;;;;;;;2.33;98.90;101005.59;1777054;78;21156;-76
2020/12/19 06:01:48;;;;;;;31.63;18.97;;;;;;;2.31;99.24;101011.03;1785998;80;21145;-77
2020/12/19 06:04:17;;;;;;;26.17;16.87;;;;;;;2.34;99.66;101013.69;1770584;78;21197;-76
2020/12/19 06:06:47;;;;;;;29.87;19.10;;;;;;;2.38;99.81;101010.84;1777636;80;21081;-75
2020/12/19 06:09:16;;;;;;;28.60;17.40;;;;;;;2.42;99.79;101019.46;1776868;78;21089;-76
2020/12/19 06:11:54;;;;;;;31.13;19.70;;;;;;;2.46;99.72;101026.44;1795441;80;21541;-77
2020/12/19 06:14:22;;;;;;;37.53;20.27;;;;;;;2.52;99.66;101033.03;1796705;78;21581;-76
2020/12/19 06:16:54;;;;;;;33.30;19.77;;;;;;;2.56;99.64;101035.73;1796795;80;21086;-76
2020/12/19 06:19:25;;;;;;;30.47;18.23;;;;;;;2.62;99.62;101041.88;1778435;78;21125;-77
2020/12/19 06:21:56;;;;;;;29.60;19.50;;;;;;;2.65;99.28;101041.56;1768190;78;21305;-76
2020/12/19 06:25:04;;;;;;;34.13;18.47;;;;;;;2.67;99.31;101047.57;1772072;79;21138;-77
2020/12/19 06:27:37;;;;;;;33.13;19.77;;;;;;;2.72;99.18;101050.30;1769477;79;21125;-76
2020/12/19 06:30:05;;;;;;;32.27;19.17;;;;;;;2.77;99.06;101055.13;1760980;80;21110;-76
2020/12/19 06:32:32;;;;;;;31.80;18.40;;;;;;;2.84;98.92;101058.76;1777926;80;21260;-76
2020/12/19 06:35:09;;;;;;;38.07;19.57;;;;;;;2.89;98.66;101056.82;1766678;80;21122;-76
2020/12/19 06:37:40;;;;;;;42.77;20.80;;;;;;;2.95;98.60;101059.58;1756232;80;21199;-77
2020/12/19 06:40:12;;;;;;;32.50;18.93;;;;;;;3.02;98.20;101064.48;1777186;80;21240;-76
2020/12/19 06:42:44;;;;;;;37.53;19.90;;;;;;;3.06;97.98;101063.75;1788403;80;21157;-76
2020/12/19 06:45:29;;;;;;;32.57;18.83;;;;;;;3.11;97.67;101061.36;1770603;80;21090;-77
2020/12/19 06:47:57;;;;;;;27.07;17.60;;;;;;;3.14;97.18;101061.42;1776873;79;21101;-76
2020/12/19 06:50:25;;;;;;;26.63;18.43;;;;;;;3.16;96.79;101066.19;1766135;79;21126;-76
2020/12/19 06:52:57;;;;;;;32.27;18.60;;;;;;;3.16;96.77;101070.89;1783419;80;21255;-77
2020/12/19 06:55:29;;;;;;;28.50;19.17;;;;;;;3.19;96.50;101068.84;1773233;80;21089;-76
2020/12/19 06:57:58;;;;;;;28.33;18.73;;;;;;;3.19;96.11;101079.07;1781143;79;21540;-76
2020/12/19 07:00:31;;;;;;;26.03;18.83;;;;;;;3.18;95.76;101072.23;1784845;79;21511;-76
2020/12/19 07:03:00;;;;;;;27.03;17.13;;;;;;;3.15;95.72;101078.11;1784151;79;21097;-77
2020/12/19 07:05:35;;;;;;;26.53;18.67;;;;;;;3.14;95.56;101078.05;1772276;79;21236;-76
2020/12/19 07:08:23;;;;;;;28.23;17.60;;;;;;;3.14;95.59;101079.32;1782431;79;21138;-76
2020/12/19 07:10:51;;;;;;;29.97;17.93;;;;;;;3.11;95.42;101068.61;1765204;80;21118;-77
2020/12/19 07:13:19;;;;;;;29.90;18.43;;;;;;;3.10;95.66;101071.97;1782621;79;21129;-77
2020/12/19 07:15:49;;;;;;;33.23;20.90;;;;;;;3.12;95.76;101067.78;1780397;79;21173;-76
2020/12/19 07:18:32;;;;;;;28.77;19.75;;;;;;;3.15;95.87;101067.02;1772717;79;21144;-75
2020/12/19 07:21:06;;;;;;;27.37;17.60;;;;;;;3.21;95.79;101064.66;1774707;79;21119;-75
2020/12/19 07:23:36;;;;;;;24.00;16.40;;;;;;;3.25;95.47;101070.32;1779846;79;21247;-76
2020/12/19 07:26:05;;;;;;;30.77;19.57;;;;;;;3.26;95.38;101071.63;1785500;80;21160;-75
2020/12/19 07:28:33;;;;;;;24.17;16.10;;;;;;;3.25;95.40;101073.73;1782362;80;21121;-77
2020/12/19 07:31:01;;;;;;;29.80;18.40;;;;;;;3.29;95.50;101075.98;1783946;80;21558;-76
2020/12/19 07:33:32;;;;;;;28.45;18.10;;;;;;;3.31;95.34;101073.48;1781556;80;21133;-76
2020/12/19 07:36:00;;;;;;;29.63;19.17;;;;;;;3.32;95.09;101072.66;1778919;80;21094;-76
2020/12/19 07:38:28;;;;;;;30.37;19.03;;;;;;;3.29;94.94;101071.73;1781203;80;21153;-75
2020/12/19 07:40:56;;;;;;;30.33;19.70;;;;;;;3.25;95.12;101067.77;1775989;80;21114;-75
2020/12/19 07:43:24;;;;;;;28.47;18.83;;;;;;;3.31;95.36;101072.21;1771217;80;21159;-76
2020/12/19 07:46:01;;;;;;;28.33;19.00;;;;;;;3.35;95.10;101074.89;1798905;79;21104;-75
2020/12/19 07:48:29;;;;;;;29.63;19.97;;;;;;;3.40;95.12;101075.02;1775600;79;21121;-75
2020/12/19 07:50:56;;;;;;;36.40;23.23;;;;;;;3.45;94.92;101072.21;1780114;80;21117;-76
2020/12/19 07:53:24;;;;;;;38.10;23.43;;;;;;;3.48;94.56;101074.45;1690699;82;21162;-76
2020/12/19 07:55:52;;;;;;;41.73;25.83;;;;;;;3.51;94.62;101076.23;1756006;80;21503;-76
2020/12/19 07:58:20;;;;;;;42.00;24.70;;;;;;;3.55;94.34;101083.59;1755139;80;21098;-76
2020/12/19 08:00:48;;;;;;;37.93;23.43;;;;;;;3.59;94.59;101082.44;1767830;79;21134;-76
2020/12/19 08:03:16;;;;;;;43.33;28.80;;;;;;;3.66;94.28;101084.39;1762236;80;21233;-76
2020/12/19 08:05:44;;;;;;;38.90;26.07;;;;;;;3.67;94.06;101083.55;1767794;79;21081;-77
2020/12/19 08:08:12;;;;;;;46.73;26.73;;;;;;;3.72;94.06;101078.56;1741628;81;21137;-77
2020/12/19 08:10:41;;;;;;;41.17;25.83;;;;;;;3.79;93.84;101086.01;1782272;80;21117;-76
2020/12/19 08:13:12;;;;;;;42.63;24.37;;;;;;;3.82;93.43;101093.77;1750256;81;21158;-77
2020/12/19 08:15:39;;;;;;;43.58;26.60;;;;;;;3.84;93.19;101089.58;1742485;81;21126;-76
2020/12/19 08:18:08;;;;;;;41.50;26.10;;;;;;;3.83;92.98;101090.42;1768740;80;21311;-75
2020/12/19 08:20:37;;;;;;;40.07;25.43;;;;;;;3.86;92.99;101092.65;1774405;79;21121;-76
2020/12/19 08:23:07;;;;;;;39.67;24.43;;;;;;;3.88;92.57;101087.56;1763815;79;21235;-76
2020/12/19 08:25:38;;;;;;;52.08;28.62;;;;;;;3.87;92.56;101085.42;1774610;80;21150;-75
2020/12/19 08:28:05;;;;;;;35.55;21.77;;;;;;;3.90;92.44;101086.79;1768507;79;21149;-76
2020/12/19 08:30:33;;;;;;;38.77;22.90;;;;;;;3.93;92.15;101086.02;1736750;80;21149;-76
2020/12/19 08:33:04;;;;;;;38.47;23.83;;;;;;;3.96;92.19;101084.83;1752735;80;21118;-77
2020/12/19 08:35:58;;;;;;;34.18;21.10;;;;;;;3.99;92.27;101083.22;1772572;79;21252;-76
2020/12/19 08:38:26;;;;;;;35.20;22.17;;;;;;;4.04;91.98;101078.63;1731121;82;21137;-76
2020/12/19 08:41:02;;;;;;;35.83;22.53;;;;;;;4.08;91.56;101080.45;1728636;81;21268;-76
2020/12/19 08:43:32;;;;;;;36.27;22.37;;;;;;;4.10;91.51;101079.67;1728923;82;21153;-76
2020/12/19 08:46:09;;;;;;;28.30;18.33;;;;;;;4.14;91.15;101081.48;1729089;82;21134;-78
2020/12/19 08:48:37;;;;;;;30.70;20.30;;;;;;;4.16;90.93;101075.14;1725958;82;21263;-76
2020/12/19 08:51:10;;;;;;;30.37;20.57;;;;;;;4.20;90.70;101075.26;1728511;82;21191;-75
2020/12/19 08:53:40;;;;;;;37.27;25.43;;;;;;;4.25;90.50;101066.83;1732668;82;21125;-76
2020/12/19 08:56:25;;;;;;;33.70;21.63;;;;;;;4.29;90.30;101065.69;1731298;81;21268;-76
2020/12/19 08:58:53;;;;;;;28.67;19.62;;;;;;;4.32;90.03;101065.77;1739336;82;21166;-75
2020/12/19 09:01:23;;;;;;;33.93;20.90;;;;;;;4.35;89.99;101069.70;1730002;82;21098;-75
2020/12/19 09:03:55;;;;;;;36.73;23.10;;;;;;;4.38;89.76;101064.66;1730071;82;21143;-77
2020/12/19 09:06:25;;;;;;;35.83;22.22;;;;;;;4.41;89.47;101061.28;1741183;82;21251;-76
2020/12/19 09:08:53;;;;;;;35.27;22.50;;;;;;;4.42;89.25;101054.94;1727365;81;21560;-75
2020/12/19 09:11:27;;;;;;;38.37;23.83;;;;;;;4.42;88.74;101052.80;1732703;81;21149;-76
2020/12/19 09:14:14;;;;;;;37.17;23.10;;;;;;;4.38;88.90;101048.01;1723586;83;21170;-74
2020/12/19 09:17:10;;;;;;;32.07;20.87;;;;;;;4.37;88.69;101051.80;1747322;82;21122;-78
2020/12/19 09:19:39;;;;;;;40.73;21.87;;;;;;;4.35;88.50;101048.31;1700605;84;21349;-81
2020/12/19 09:45:14;;;;;;;43.47;24.47;;;;;;;4.11;90.07;101047.25;1760344;77;21127;31
2020/12/19 10:36:54;;;;;;;34.33;23.53;;;;;;;3.68;94.45;101047.31;1738914;79;21154;-80
2020/12/19 11:06:42;;;;;;;48.63;27.87;;;;;;;3.34;98.19;101030.97;1676869;83;21196;-79
2020/12/19 11:09:24;;;;;;;44.97;27.57;;;;;;;3.33;98.89;101033.47;1815415;76;22609;-79
2020/12/19 11:11:54;;;;;;;45.63;26.40;;;;;;;3.22;99.59;101036.56;1765695;77;21373;-82
2020/12/19 11:14:22;;;;;;;43.90;26.50;;;;;;;3.18;99.86;101034.74;1765757;80;21483;-80
2020/12/19 11:16:50;;;;;;;59.87;27.80;;;;;;;3.17;100.00;101035.95;1782113;77;21149;-79
2020/12/19 11:19:20;;;;;;;58.83;30.60;;;;;;;3.16;100.00;101038.92;1756930;78;21118;-79
2020/12/19 11:21:49;;;;;;;50.00;28.20;;;;;;;3.16;100.00;101035.09;1767014;78;21138;-81
2020/12/19 11:24:24;;;;;;;52.33;28.97;;;;;;;3.19;100.00;101039.44;1774793;80;21070;-80
2020/12/19 11:30:02;;;;;;;46.33;27.97;;;;;;;3.21;100.00;101036.12;1740299;79;21160;-80
2020/12/19 11:32:32;;;;;;;45.17;25.73;;;;;;;3.25;100.00;101044.33;1675492;85;21147;-82
2020/12/19 11:35:05;;;;;;;47.40;28.73;;;;;;;3.31;100.00;101047.91;1640655;84;21144;-81
2020/12/19 11:37:35;;;;;;;42.43;24.35;;;;;;;3.34;100.00;101046.73;1615378;86;21409;-81
2020/12/19 11:40:14;;;;;;;49.23;28.37;;;;;;;3.32;100.00;101049.22;1641342;84;21158;-81
2020/12/19 11:42:50;;;;;;;57.63;31.90;;;;;;;3.33;100.00;101049.67;1614972;87;21130;-83
2020/12/19 11:48:47;;;;;;;49.97;28.87;;;;;;;3.37;100.00;101051.91;1756547;77;21159;-83
2020/12/19 11:51:39;;;;;;;51.47;32.40;;;;;;;3.41;100.00;101052.07;1675357;83;21130;-81
2020/12/19 11:54:08;;;;;;;44.67;26.53;;;;;;;3.43;100.00;101051.72;1700080;81;21127;-83
2020/12/19 11:56:57;;;;;;;52.30;30.27;;;;;;;3.44;100.00;101047.05;1682555;78;21190;-82
2020/12/19 11:59:26;;;;;;;52.17;32.10;;;;;;;3.42;100.00;101044.84;1746797;79;21169;-80
2020/12/19 12:02:17;;;;;;;62.30;34.77;;;;;;;3.40;100.00;101048.17;1744031;80;21090;-80
2020/12/19 12:04:47;;;;;;;49.83;31.10;;;;;;;3.42;100.00;101039.73;1756863;79;21121;-81
2020/12/19 12:07:25;;;;;;;48.80;31.37;;;;;;;3.43;100.00;101041.48;1720316;82;21244;-80
2020/12/19 12:09:54;;;;;;;54.03;31.93;;;;;;;3.45;100.00;101051.75;1756884;78;21145;-81
2020/12/19 12:12:25;;;;;;;50.80;29.77;;;;;;;3.43;100.00;101039.31;1755208;79;21201;-82
2020/12/19 12:14:58;;;;;;;55.73;30.20;;;;;;;3.44;100.00;101037.23;1751500;79;21129;-82
2020/12/19 12:17:27;;;;;;;49.47;31.00;;;;;;;3.41;100.00;101041.84;1748486;79;21148;-82
2020/12/19 12:20:12;;;;;;;46.83;28.53;;;;;;;3.41;100.00;101046.09;1747503;80;21248;-81
2020/12/19 12:22:51;;;;;;;47.43;28.43;;;;;;;3.38;100.00;101043.02;1736847;81;21140;-81
2020/12/19 12:25:22;;;;;;;50.30;32.63;;;;;;;3.37;100.00;101042.95;1689634;81;21122;-81
2020/12/19 12:27:55;;;;;;;48.20;31.57;;;;;;;3.38;100.00;101042.16;1753799;79;21105;-82
2020/12/19 12:31:05;;;;;;;48.63;30.30;;;;;;;3.38;100.00;101049.83;1714474;82;21137;-82
2020/12/19 12:33:36;;;;;;;58.80;37.40;;;;;;;3.41;100.00;101045.67;1747337;79;21129;-81
2020/12/19 12:36:29;;;;;;;52.77;29.23;;;;;;;3.44;100.00;101045.77;1700081;79;21121;-82
2020/12/19 12:39:00;;;;;;;43.83;25.33;;;;;;;3.50;100.00;101048.52;1756204;79;21252;-82
2020/12/19 12:41:33;;;;;;;50.67;30.87;;;;;;;3.49;100.00;101045.48;1753800;78;21311;-83
2020/12/19 12:44:06;;;;;;;48.98;30.50;;;;;;;3.44;100.00;101041.94;1691202;83;21162;-82
2020/12/19 12:46:37;;;;;;;53.50;31.83;;;;;;;3.43;100.00;101051.72;1696058;82;21232;-83
2020/12/19 12:49:27;;;;;;;54.83;33.30;;;;;;;3.43;100.00;101043.15;1727543;82;21145;-82
2020/12/19 12:52:23;;;;;;;53.20;32.17;;;;;;;3.39;100.00;101047.30;1717313;80;21127;-82
2020/12/19 12:54:52;;;;;;;54.73;31.53;;;;;;;3.38;100.00;101047.27;1767716;80;21089;-82
2020/12/19 12:57:21;;;;;;;58.63;34.10;;;;;;;3.39;100.00;101042.19;1791886;80;21145;-82
2020/12/19 12:59:53;;;;;;;51.00;33.00;;;;;;;3.40;100.00;101054.56;1796053;80;21286;-82
2020/12/19 13:02:24;;;;;;;58.47;33.17;;;;;;;3.41;100.00;101048.23;1777241;79;21129;-82
2020/12/19 13:05:06;;;;;;;52.17;30.67;;;;;;;3.42;100.00;101052.93;1737399;81;21173;-81
2020/12/19 13:07:38;;;;;;;48.00;30.60;;;;;;;3.39;100.00;101048.59;1760250;80;21185;-81
2020/12/19 13:10:09;;;;;;;57.70;34.60;;;;;;;3.37;100.00;101056.64;1707796;82;21111;-81
2020/12/19 13:12:39;;;;;;;57.93;34.20;;;;;;;3.31;100.00;101057.73;1759928;80;21129;-83
2020/12/19 13:15:09;;;;;;;57.67;34.03;;;;;;;3.31;100.00;101059.42;1772338;79;21093;-81